createdAt,value
2022-09-29T00:01:59.649Z,6.4
2022-09-29T00:04:03.481Z,6.4
2022-09-29T00:06:07.415Z,6.3
2022-09-29T00:08:11.310Z,6.3
2022-09-29T00:10:15.227Z,6.2
2022-09-29T00:14:25.957Z,6.4
2022-09-29T00:18:33.785Z,6.3
2022-09-29T00:20:37.731Z,6.2
2022-09-29T00:22:41.650Z,6.3
2022-09-29T00:28:56.274Z,6.2
2022-09-29T00:33:04.089Z,6.2
2022-09-29T00:34:07.533Z,6.2
2022-09-29T00:36:11.441Z,6.1
2022-09-29T00:38:15.380Z,6.1
2022-09-29T00:40:19.339Z,6.1
2022-09-29T00:42:26.113Z,6.1
2022-09-29T00:44:30.032Z,6
2022-09-29T00:46:33.954Z,6.1
2022-09-29T00:48:37.770Z,6.1
2022-09-29T00:50:41.562Z,6.2
2022-09-29T00:52:45.487Z,6.2
2022-09-29T00:54:49.398Z,6.2
2022-09-29T01:03:07.795Z,5.9
2022-09-29T01:05:11.722Z,5.8
2022-09-29T01:07:15.620Z,5.8
2022-09-29T01:11:26.343Z,5.8
2022-09-29T01:13:30.258Z,5.7
2022-09-29T01:15:34.183Z,5.7
2022-09-29T01:17:38.085Z,5.7
2022-09-29T01:19:42.023Z,5.7
2022-09-29T01:21:45.917Z,5.6
2022-09-29T01:23:49.802Z,5.6
2022-09-29T01:25:56.642Z,5.5
2022-09-29T01:28:00.557Z,5.5
2022-09-29T01:30:04.444Z,5.5
2022-09-29T01:33:11.775Z,5.5
2022-09-29T01:41:30.322Z,5.6
2022-09-29T01:47:42.050Z,5.7
2022-09-29T01:53:56.669Z,5.8
2022-09-29T01:56:00.547Z,5.7
2022-09-29T02:00:08.324Z,5.6
2022-09-29T02:02:12.285Z,5.6
2022-09-29T02:08:26.877Z,5.6
2022-09-29T02:10:30.750Z,5.5
2022-09-29T02:16:42.610Z,5.4
2022-09-29T02:18:46.385Z,5.4
2022-09-29T02:20:50.407Z,5.4
2022-09-29T02:25:00.962Z,5.4
2022-09-29T02:27:04.851Z,5.4
2022-09-29T02:28:08.265Z,5.4
2022-09-29T02:30:12.176Z,5.3
2022-09-29T02:34:20.083Z,5.3
2022-09-29T02:38:30.621Z,5.4
2022-09-29T02:40:34.644Z,5.4
2022-09-29T02:48:50.823Z,5.2
2022-09-29T02:53:01.513Z,5
2022-09-29T02:55:05.408Z,5
2022-09-29T02:57:09.267Z,4.9
2022-09-29T03:01:17.088Z,4.9
2022-09-29T03:03:20.953Z,4.8
2022-09-29T03:05:27.717Z,4.8
2022-09-29T03:09:35.470Z,4.8
2022-09-29T03:13:43.275Z,4.9
2022-09-29T03:17:50.999Z,4.8
2022-09-29T03:22:01.740Z,4.7
2022-09-29T03:24:05.569Z,4.8
2022-09-29T03:26:29.660Z,4.7
2022-09-29T03:28:33.544Z,4.7
2022-09-29T03:30:37.426Z,4.7
2022-09-29T03:32:44.193Z,4.6
2022-09-29T03:34:48.091Z,4.6
2022-09-29T03:36:51.933Z,4.6
2022-09-29T03:38:55.825Z,4.5
2022-09-29T03:40:59.900Z,4.5
2022-09-29T03:43:03.576Z,4.5
2022-09-29T03:45:07.420Z,4.4
2022-09-29T03:47:14.207Z,4.4
2022-09-29T03:51:21.972Z,4.4
2022-09-29T03:53:25.857Z,4.4
2022-09-29T03:57:33.610Z,4.3
2022-09-29T04:01:44.315Z,4.3
2022-09-29T04:03:48.111Z,4.3
2022-09-29T04:05:51.955Z,4.3
2022-09-29T04:07:55.837Z,4.2
2022-09-29T04:09:59.690Z,4.2
2022-09-29T04:12:03.566Z,4.1
2022-09-29T04:14:07.436Z,4.1
2022-09-29T04:16:14.248Z,4.1
2022-09-29T04:18:18.076Z,4.2
2022-09-29T04:20:21.931Z,4.2
2022-09-29T04:21:25.295Z,4.1
2022-09-29T04:25:33.035Z,4.1
2022-09-29T04:27:36.874Z,4.1
2022-09-29T04:29:43.644Z,4
2022-09-29T04:31:47.558Z,4
2022-09-29T04:33:51.352Z,4.1
2022-09-29T04:35:55.218Z,4.1
2022-09-29T04:37:59.067Z,4
2022-09-29T04:40:02.945Z,4
2022-09-29T04:42:06.753Z,4
2022-09-29T04:44:13.542Z,4
2022-09-29T04:46:17.507Z,4
2022-09-29T04:48:21.264Z,3.9
2022-09-29T04:50:25.111Z,3.9
2022-09-29T04:52:28.964Z,3.9
2022-09-29T04:56:36.665Z,3.9
2022-09-29T04:58:43.462Z,3.9
2022-09-29T05:00:47.315Z,3.9
2022-09-29T05:09:02.694Z,3.8
2022-09-29T05:17:22.488Z,3.9
2022-09-29T05:18:25.883Z,4
2022-09-29T05:20:38.296Z,3.9
2022-09-29T05:22:33.577Z,3.9
2022-09-29T05:26:44.185Z,4
2022-09-29T05:28:47.986Z,4
2022-09-29T05:30:52.007Z,4
2022-09-29T05:32:58.856Z,4.1
2022-09-29T05:37:03.354Z,4.3
2022-09-29T05:39:07.217Z,4.2
2022-09-29T05:43:17.810Z,4.1
2022-09-29T05:45:21.649Z,4.2
2022-09-29T05:47:25.498Z,4.1
2022-09-29T05:49:29.291Z,4.1
2022-09-29T05:51:33.133Z,4
2022-09-29T05:53:36.863Z,4
2022-09-29T05:55:43.641Z,4
2022-09-29T05:57:47.426Z,4
2022-09-29T05:59:51.249Z,4
2022-09-29T06:01:55.182Z,4
2022-09-29T06:03:58.974Z,4.1
2022-09-29T06:06:02.847Z,4.1
2022-09-29T06:08:06.678Z,4.1
2022-09-29T06:10:13.427Z,4.1
2022-09-29T06:12:21.573Z,4.1
2022-09-29T06:14:21.160Z,4.1
2022-09-29T06:15:24.512Z,4.1
2022-09-29T06:17:28.371Z,4.2
2022-09-29T06:19:32.204Z,4.3
2022-09-29T06:21:36.074Z,4.3
2022-09-29T06:23:42.808Z,4.4
2022-09-29T06:34:02.077Z,4.7
2022-09-29T06:36:05.927Z,4.9
2022-09-29T06:38:12.698Z,5.1
2022-09-29T06:46:28.126Z,5.4
2022-09-29T06:48:32.006Z,5.5
2022-09-29T06:50:35.888Z,5.6
2022-09-29T06:56:50.399Z,5.7
2022-09-29T06:58:54.181Z,5.8
2022-09-29T07:03:01.926Z,6
2022-09-29T07:05:05.704Z,6.1
2022-09-29T07:07:12.530Z,6
2022-09-29T07:09:16.698Z,6
2022-09-29T07:11:20.314Z,6.2
2022-09-29T07:13:44.352Z,6.4
2022-09-29T07:15:48.210Z,6.4
2022-09-29T07:17:52.101Z,6.5
2022-09-29T07:19:58.918Z,6.5
2022-09-29T07:22:02.817Z,6.4
2022-09-29T07:24:06.726Z,6.5
2022-09-29T07:26:10.615Z,6.7
2022-09-29T07:28:14.503Z,7
2022-09-29T07:30:18.429Z,7.2
2022-09-29T07:32:27.346Z,7.4
2022-09-29T07:34:29.150Z,9
2022-09-29T07:36:33.060Z,9.9
2022-09-29T07:38:36.971Z,11.9
2022-09-29T07:40:40.929Z,13.4
2022-09-29T07:42:44.814Z,12.5
2022-09-29T07:44:52.192Z,11.8
2022-09-29T07:46:52.670Z,10.5
2022-09-29T07:48:59.492Z,8.8
2022-09-29T07:51:03.406Z,8.6
2022-09-29T07:55:11.204Z,10.9
2022-09-29T07:57:15.042Z,11.2
2022-09-29T07:59:18.914Z,11.6
2022-09-29T08:01:23.062Z,12.5
2022-09-29T08:03:29.652Z,13.7
2022-09-29T08:05:33.579Z,13.7
2022-09-29T08:07:37.445Z,13.5
2022-09-29T08:12:48.633Z,13.9
2022-09-29T08:14:52.533Z,13.9
2022-09-29T08:16:59.366Z,14
2022-09-29T08:19:03.294Z,14
2022-09-29T08:25:15.010Z,14.4
2022-09-29T08:27:19.411Z,15.4
2022-09-29T08:29:22.899Z,15.8
2022-09-29T08:31:29.675Z,15.2
2022-09-29T08:33:33.609Z,15.1
2022-09-29T08:39:45.428Z,15.6
2022-09-29T08:50:07.978Z,16.9
2022-09-29T08:52:16.411Z,16.4
2022-09-29T08:54:16.420Z,16.3
2022-09-29T09:02:34.549Z,16.9
2022-09-29T09:04:38.436Z,16.4
2022-09-29T09:05:41.811Z,16.4
2022-09-29T09:07:45.736Z,16.4
2022-09-29T09:09:49.699Z,16.5
2022-09-29T09:11:53.633Z,16
2022-09-29T09:14:00.415Z,16.2
2022-09-29T09:16:04.366Z,16.2
2022-09-29T09:18:02.124Z,15.5
2022-09-29T09:20:06.075Z,16.1
2022-09-29T09:22:10.042Z,16.2
2022-09-29T09:24:13.971Z,16.4
2022-09-29T09:26:17.929Z,16
2022-09-29T09:28:24.689Z,15.6
2022-09-29T09:30:28.697Z,15.2
2022-09-29T09:32:32.608Z,15.2
2022-09-29T09:34:42.910Z,15.9
2022-09-29T09:36:40.487Z,16.6
2022-09-29T09:38:44.440Z,16.6
2022-09-29T09:40:48.382Z,16.5
2022-09-29T09:42:55.129Z,16.8
2022-09-29T09:44:59.103Z,17
2022-09-29T09:49:06.996Z,16.5
2022-09-29T09:51:10.921Z,16.7
2022-09-29T09:53:15.485Z,17.3
2022-09-29T09:55:18.826Z,17.5
2022-09-29T09:57:25.576Z,17.2
2022-09-29T09:59:29.516Z,17.7
2022-09-29T10:01:33.529Z,18.1
2022-09-29T10:02:36.983Z,18.1
2022-09-29T10:04:40.806Z,18.2
2022-09-29T10:06:44.754Z,18.4
2022-09-29T10:08:48.691Z,18.7
2022-09-29T10:10:59.160Z,17.7
2022-09-29T10:13:00.164Z,17.6
2022-09-29T10:15:03.368Z,17.6
2022-09-29T10:17:07.600Z,17.4
2022-09-29T10:19:11.281Z,17.5
2022-09-29T10:21:15.217Z,17.3
2022-09-29T10:23:19.192Z,17.2
2022-09-29T10:25:25.951Z,17.8
2022-09-29T10:27:29.900Z,18.3
2022-09-29T10:29:33.838Z,18.7
2022-09-29T10:31:37.803Z,18.8
2022-09-29T10:33:41.731Z,18.6
2022-09-29T10:35:45.703Z,17.5
2022-09-29T10:37:49.634Z,17.6
2022-09-29T10:39:56.410Z,18.7
2022-09-29T10:42:00.131Z,18.9
2022-09-29T10:44:04.089Z,18.8
2022-09-29T10:46:08.072Z,18
2022-09-29T10:48:11.988Z,18.6
2022-09-29T10:50:15.917Z,18.9
2022-09-29T10:52:19.882Z,19.5
2022-09-29T10:54:26.624Z,18.7
2022-09-29T10:56:30.581Z,19
2022-09-29T10:58:53.257Z,19.6
2022-09-29T11:03:08.162Z,18.9
2022-09-29T11:15:36.094Z,20.4
2022-09-29T11:17:40.036Z,19.3
2022-09-29T11:19:43.983Z,17.8
2022-09-29T11:21:50.751Z,17
2022-09-29T11:23:54.682Z,16.7
2022-09-29T11:25:58.626Z,16.3
2022-09-29T11:28:02.552Z,15.8
2022-09-29T11:30:06.537Z,15.6
2022-09-29T11:32:12.926Z,15.2
2022-09-29T11:34:14.387Z,15.4
2022-09-29T11:36:21.160Z,15.1
2022-09-29T11:38:25.085Z,14.9
2022-09-29T11:40:29.046Z,15
2022-09-29T11:42:32.992Z,15.1
2022-09-29T11:44:36.923Z,14.9
2022-09-29T11:46:40.887Z,14.9
2022-09-29T11:48:44.833Z,14.9
2022-09-29T11:50:51.611Z,15.6
2022-09-29T11:52:55.549Z,16.7
2022-09-29T11:54:59.500Z,16.6
2022-09-29T11:56:02.905Z,15.8
2022-09-29T11:58:06.833Z,15.5
2022-09-29T12:00:10.791Z,15.5
2022-09-29T12:02:14.771Z,15.4
2022-09-29T12:04:21.481Z,15.1
2022-09-29T12:06:25.451Z,14.9
2022-09-29T12:08:29.364Z,14.8
2022-09-29T12:10:33.320Z,15.3
2022-09-29T12:12:37.291Z,15.8
2022-09-29T12:14:41.454Z,15.9
2022-09-29T12:16:45.249Z,15.5
2022-09-29T12:18:51.886Z,15.4
2022-09-29T12:20:55.837Z,15.5
2022-09-29T12:22:59.824Z,15.5
2022-09-29T12:25:03.734Z,15.5
2022-09-29T12:27:07.681Z,15.9
2022-09-29T12:29:11.622Z,16.4
2022-09-29T12:31:15.623Z,16.4
2022-09-29T12:33:22.339Z,16.3
2022-09-29T12:35:26.284Z,16.4
2022-09-29T12:37:30.237Z,16.5
2022-09-29T12:39:34.192Z,16.6
2022-09-29T12:41:38.120Z,17.1
2022-09-29T12:43:42.059Z,17.2
2022-09-29T12:45:46.036Z,17.4
2022-09-29T12:47:52.773Z,17.5
2022-09-29T12:49:56.724Z,17.1
2022-09-29T12:52:00.694Z,16.7
2022-09-29T12:53:08.348Z,16.1
2022-09-29T12:57:11.939Z,16.4
2022-09-29T12:59:15.869Z,16.8
2022-09-29T13:01:22.690Z,17
2022-09-29T13:09:38.502Z,17
2022-09-29T13:11:42.381Z,17.3
2022-09-29T13:13:46.317Z,17.3
2022-09-29T13:15:53.143Z,17.1
2022-09-29T13:17:57.029Z,17.2
2022-09-29T13:20:01.196Z,17.5
2022-09-29T13:24:08.891Z,17.2
2022-09-29T13:36:35.343Z,18
2022-09-29T13:38:39.308Z,18
2022-09-29T13:40:43.239Z,18.1
2022-09-29T13:42:47.161Z,18.2
2022-09-29T13:44:53.936Z,18.2
2022-09-29T13:46:57.868Z,18.1
2022-09-29T13:49:01.823Z,17.9
2022-09-29T13:50:05.244Z,17.8
2022-09-29T13:56:17.018Z,17.8
2022-09-29T13:58:23.771Z,19.6
2022-09-29T14:00:27.723Z,20.7
2022-09-29T14:02:31.706Z,21.1
2022-09-29T14:04:37.690Z,21
2022-09-29T14:06:41.397Z,20.3
2022-09-29T14:08:43.517Z,20
2022-09-29T14:10:47.419Z,20.4
2022-09-29T14:12:54.180Z,20
2022-09-29T14:14:58.184Z,20
2022-09-29T14:17:02.111Z,19.9
2022-09-29T14:19:06.010Z,19.5
2022-09-29T14:21:09.960Z,19.5
2022-09-29T14:23:13.897Z,19.2
2022-09-29T14:25:17.823Z,19.1
2022-09-29T14:27:24.588Z,19.6
2022-09-29T14:29:28.539Z,19.4
2022-09-29T14:31:32.472Z,18.5
2022-09-29T14:33:36.396Z,18.1
2022-09-29T14:35:40.346Z,18.2
2022-09-29T14:37:44.275Z,18.1
2022-09-29T14:39:48.203Z,17.8
2022-09-29T14:41:54.989Z,17.5
2022-09-29T14:43:58.924Z,17.2
2022-09-29T14:46:02.938Z,17
2022-09-29T14:48:32.547Z,16.9
2022-09-29T14:52:40.426Z,17.1
2022-09-29T14:54:47.197Z,16.8
2022-09-29T14:56:51.160Z,16.7
2022-09-29T14:58:55.083Z,16.3
2022-09-29T15:00:59.026Z,16.2
2022-09-29T15:03:23.565Z,16.1
2022-09-29T15:05:06.907Z,16.1
2022-09-29T15:09:17.775Z,15.7
2022-09-29T15:11:21.585Z,15.5
2022-09-29T15:13:25.519Z,15.5
2022-09-29T15:15:29.520Z,15.3
2022-09-29T15:17:33.433Z,15.2
2022-09-29T15:19:37.365Z,15.1
2022-09-29T15:21:41.321Z,15.1
2022-09-29T15:23:48.106Z,15.1
2022-09-29T15:25:52.060Z,15.1
2022-09-29T15:27:55.975Z,15.2
2022-09-29T15:29:59.941Z,15.2
2022-09-29T15:32:03.868Z,15.3
2022-09-29T15:34:07.840Z,15.3
2022-09-29T15:36:11.762Z,15.3
2022-09-29T15:38:18.530Z,15.4
2022-09-29T15:42:26.433Z,15.4
2022-09-29T15:43:29.807Z,15.1
2022-09-29T15:45:33.759Z,15.1
2022-09-29T15:47:37.731Z,15.1
2022-09-29T15:51:48.410Z,15
2022-09-29T15:53:52.366Z,15
2022-09-29T15:55:56.330Z,14.9
2022-09-29T15:58:00.260Z,14.8
2022-09-29T16:00:04.256Z,14.8
2022-09-29T16:02:08.163Z,14.8
2022-09-29T16:04:12.132Z,14.8
2022-09-29T16:06:18.894Z,14.8
2022-09-29T16:08:22.843Z,14.8
2022-09-29T16:10:26.790Z,14.7
2022-09-29T16:12:30.742Z,14.7
2022-09-29T16:14:34.695Z,14.7
2022-09-29T16:16:38.638Z,14.6
2022-09-29T16:18:42.580Z,14.5
2022-09-29T16:20:49.342Z,14.5
2022-09-29T16:22:53.286Z,14.5
2022-09-29T16:24:57.240Z,14.4
2022-09-29T16:27:01.191Z,14.4
2022-09-29T16:29:05.136Z,14.3
2022-09-29T16:31:09.102Z,14.3
2022-09-29T16:33:13.023Z,14.2
2022-09-29T16:35:19.780Z,14
2022-09-29T16:37:23.729Z,14
2022-09-29T16:39:27.657Z,13.9
2022-09-29T16:40:31.031Z,13.8
2022-09-29T16:44:38.937Z,13.7
2022-09-29T16:48:49.610Z,13.4
2022-09-29T16:50:53.583Z,13.4
2022-09-29T16:52:57.519Z,13.4
2022-09-29T16:55:01.457Z,13.4
2022-09-29T16:57:05.399Z,13.3
2022-09-29T16:59:09.353Z,13.2
2022-09-29T17:01:13.316Z,13.3
2022-09-29T17:03:20.037Z,13.2
2022-09-29T17:05:25.493Z,13.2
2022-09-29T17:07:29.404Z,13.1
2022-09-29T17:11:37.274Z,12.9
2022-09-29T17:13:41.243Z,12.8
2022-09-29T17:15:45.250Z,12.8
2022-09-29T17:17:51.903Z,12.8
2022-09-29T17:19:55.863Z,12.7
2022-09-29T17:21:59.778Z,12.6
2022-09-29T17:24:03.815Z,12.6
2022-09-29T17:26:07.731Z,12.5
2022-09-29T17:28:11.659Z,12.5
2022-09-29T17:30:15.594Z,12.4
2022-09-29T17:32:22.335Z,12.4
2022-09-29T17:34:26.746Z,12.3
2022-09-29T17:36:30.202Z,12.2
2022-09-29T17:37:33.584Z,12.1
2022-09-29T17:39:37.585Z,12.1
2022-09-29T17:41:45.814Z,12
2022-09-29T17:43:45.450Z,11.9
2022-09-29T17:45:52.199Z,11.8
2022-09-29T17:47:56.122Z,11.8
2022-09-29T17:50:00.041Z,11.7
2022-09-29T17:52:03.967Z,11.6
2022-09-29T17:54:07.877Z,11.5
2022-09-29T17:56:11.807Z,11.4
2022-09-29T17:58:15.720Z,11.4
2022-09-29T18:00:22.473Z,11.2
2022-09-29T18:02:26.474Z,11.2
2022-09-29T18:04:30.330Z,11.2
2022-09-29T18:06:34.236Z,11
2022-09-29T18:08:38.168Z,10.8
2022-09-29T18:10:42.174Z,10.8
2022-09-29T18:12:46.109Z,10.8
2022-09-29T18:14:52.960Z,10.7
2022-09-29T18:16:56.976Z,10.7
2022-09-29T18:19:00.902Z,10.6
2022-09-29T18:21:04.812Z,10.6
2022-09-29T18:23:08.729Z,10.5
2022-09-29T18:25:12.624Z,10.4
2022-09-29T18:27:16.556Z,10.4
2022-09-29T18:29:23.261Z,10.4
2022-09-29T18:31:27.269Z,10.3
2022-09-29T18:33:31.125Z,10.3
2022-09-29T18:35:54.848Z,10.3
2022-09-29T18:37:58.751Z,10.3
2022-09-29T18:40:02.696Z,10.3
2022-09-29T18:42:09.488Z,10.2
2022-09-29T18:44:13.396Z,10.1
2022-09-29T18:46:17.370Z,10.1
2022-09-29T18:48:21.228Z,10.1
2022-09-29T18:50:25.122Z,10
2022-09-29T18:52:29.011Z,9.9
2022-09-29T18:54:33.092Z,9.9
2022-09-29T18:56:39.838Z,9.7
2022-09-29T18:58:43.763Z,9.8
2022-09-29T19:00:47.674Z,9.8
2022-09-29T19:02:51.702Z,9.7
2022-09-29T19:04:55.465Z,9.7
2022-09-29T19:06:59.380Z,9.6
2022-09-29T19:09:03.442Z,9.6
2022-09-29T19:11:10.096Z,9.5
2022-09-29T19:13:14.102Z,9.5
2022-09-29T19:15:18.120Z,9.4
2022-09-29T19:17:22.013Z,9.4
2022-09-29T19:19:26.013Z,9.3
2022-09-29T19:21:29.926Z,9.2
2022-09-29T19:23:33.835Z,9.2
2022-09-29T19:32:56.201Z,9.1
2022-09-29T19:39:10.906Z,9
2022-09-29T19:41:14.844Z,9
2022-09-29T19:47:26.489Z,8.9
2022-09-29T19:51:34.268Z,8.8
2022-09-29T19:53:43.402Z,8.8
2022-09-29T19:55:45.054Z,8.7
2022-09-29T19:57:49.034Z,8.7
2022-09-29T20:06:04.981Z,8.5
2022-09-29T20:08:11.879Z,8.5
2022-09-29T20:10:15.843Z,8.5
2022-09-29T20:14:23.692Z,8.4
2022-09-29T20:18:31.452Z,8.4
2022-09-29T20:20:35.412Z,8.3
2022-09-29T20:22:42.215Z,8.3
2022-09-29T20:24:46.160Z,8.2
2022-09-29T20:26:50.015Z,8.2
2022-09-29T20:27:53.488Z,8.1
2022-09-29T20:29:57.436Z,8.1
2022-09-29T20:34:05.292Z,8
2022-09-29T20:36:12.169Z,8
2022-09-29T20:38:16.132Z,8
2022-09-29T20:40:20.066Z,8
2022-09-29T20:42:24.081Z,8
2022-09-29T20:44:28.041Z,8
2022-09-29T20:46:32.059Z,7.9
2022-09-29T20:48:35.994Z,7.9
2022-09-29T20:50:42.787Z,7.9
2022-09-29T20:52:46.733Z,7.8
2022-09-29T20:54:50.670Z,7.8
2022-09-29T20:56:54.633Z,7.8
2022-09-29T20:58:58.608Z,7.7
2022-09-29T21:01:02.564Z,7.7
2022-09-29T21:03:06.415Z,7.7
2022-09-29T21:05:13.275Z,7.6
2022-09-29T21:07:17.253Z,7.6
2022-09-29T21:09:21.265Z,7.6
2022-09-29T21:11:25.181Z,7.6
2022-09-29T21:13:29.141Z,7.6
2022-09-29T21:15:33.108Z,7.5
2022-09-29T21:19:43.607Z,7.5
2022-09-29T21:21:47.552Z,7.4
2022-09-29T21:23:51.501Z,7.4
2022-09-29T21:24:54.837Z,7.3
2022-09-29T21:26:58.686Z,7.3
2022-09-29T21:29:02.667Z,7.2
2022-09-29T21:31:06.699Z,7.2
2022-09-29T21:33:13.407Z,7.2
2022-09-29T21:35:17.349Z,7.2
2022-09-29T21:37:21.307Z,7.1
2022-09-29T21:39:25.257Z,7.1
2022-09-29T21:41:29.218Z,7.1
2022-09-29T21:43:33.182Z,7.1
2022-09-29T21:45:37.027Z,7.1
2022-09-29T21:47:43.892Z,7.1
2022-09-29T21:51:51.718Z,7
2022-09-29T21:53:55.639Z,7
2022-09-29T21:55:59.572Z,7
2022-09-29T21:58:03.520Z,7
2022-09-29T22:00:07.477Z,7
2022-09-29T22:02:14.360Z,6.9
2022-09-29T22:04:18.099Z,6.9
2022-09-29T22:06:21.877Z,6.9
2022-09-29T22:08:25.871Z,6.9
2022-09-29T22:12:33.728Z,6.9
2022-09-29T22:14:37.687Z,6.8
2022-09-29T22:16:44.497Z,6.7
2022-09-29T22:19:05.888Z,6.7
2022-09-29T22:20:52.370Z,6.6
2022-09-29T22:23:22.131Z,6.6
2022-09-29T22:33:44.768Z,6.5
2022-09-29T22:37:52.580Z,6.5
2022-09-29T22:42:00.435Z,6.4
2022-09-29T22:44:07.284Z,6.4
2022-09-29T22:46:11.257Z,6.4
2022-09-29T22:50:18.966Z,6.4
2022-09-29T22:52:22.885Z,6.4
2022-09-29T22:54:26.749Z,6.3
2022-09-29T22:56:30.636Z,6.3
2022-09-29T22:58:37.407Z,6.3
2022-09-29T23:00:41.314Z,6.3
2022-09-29T23:02:46.728Z,6.3
2022-09-29T23:04:50.621Z,6.3
2022-09-29T23:06:54.521Z,6.3
2022-09-29T23:08:58.546Z,6.2
2022-09-29T23:11:02.388Z,6.2
2022-09-29T23:13:09.225Z,6.1
2022-09-29T23:15:13.140Z,6.1
2022-09-29T23:17:17.063Z,6.1
2022-09-29T23:18:20.376Z,6.1
2022-09-29T23:20:24.266Z,6.1
2022-09-29T23:22:28.117Z,6.1
2022-09-29T23:24:32.028Z,6.1
2022-09-29T23:26:38.853Z,6
2022-09-29T23:28:42.678Z,6
2022-09-29T23:30:46.604Z,6
2022-09-29T23:32:50.530Z,6
2022-09-29T23:34:54.424Z,5.9
2022-09-29T23:36:58.323Z,6
2022-09-29T23:39:02.270Z,6
2022-09-29T23:41:08.939Z,5.9
2022-09-29T23:43:12.760Z,5.9
2022-09-29T23:45:16.686Z,5.9
2022-09-29T23:47:20.589Z,5.9
2022-09-29T23:49:24.513Z,5.9
2022-09-29T23:51:28.423Z,5.9
2022-09-29T23:53:32.337Z,5.9
2022-09-29T23:55:39.163Z,5.8
2022-09-29T23:57:42.965Z,5.8
2022-09-29T23:59:46.786Z,5.8
